createdAt,value
2019-04-28T00:03:52.002Z,8.29
2019-04-28T00:07:56.906Z,8.23
2019-04-28T00:12:01.880Z,8.18
2019-04-28T00:16:07.714Z,8.22
2019-04-28T00:20:31.022Z,8.20
2019-04-28T00:24:46.737Z,8.20
2019-04-28T00:28:51.620Z,8.20
2019-04-28T00:32:56.517Z,8.26
2019-04-28T00:37:03.040Z,8.27
2019-04-28T00:41:07.919Z,8.30
2019-04-28T00:45:14.335Z,8.28
2019-04-28T00:49:21.501Z,8.25
2019-04-28T00:53:27.446Z,8.20
2019-04-28T00:57:32.331Z,8.09
2019-04-28T01:01:38.852Z,8.00
2019-04-28T01:05:43.743Z,7.93
2019-04-28T01:09:48.635Z,7.88
2019-04-28T01:13:53.525Z,7.87
2019-04-28T01:18:00.731Z,7.85
2019-04-28T01:22:10.390Z,7.85
2019-04-28T01:26:16.475Z,7.87
2019-04-28T01:30:40.127Z,7.82
2019-04-28T01:34:45.120Z,7.72
2019-04-28T01:38:50.176Z,7.61
2019-04-28T01:42:55.077Z,7.56
2019-04-28T01:47:01.180Z,7.50
2019-04-28T01:51:06.118Z,7.40
2019-04-28T01:55:11.077Z,7.31
2019-04-28T01:59:17.029Z,7.27
2019-04-28T02:03:21.914Z,7.25
2019-04-28T02:07:26.793Z,7.22
2019-04-28T02:11:31.679Z,7.23
2019-04-28T02:15:36.567Z,7.22
2019-04-28T02:19:41.454Z,7.23
2019-04-28T02:23:46.344Z,7.22
2019-04-28T02:27:51.219Z,7.24
2019-04-28T02:31:56.110Z,7.24
2019-04-28T02:36:01.606Z,7.25
2019-04-28T02:40:07.005Z,7.24
2019-04-28T02:44:11.897Z,7.28
2019-04-28T02:48:21.377Z,7.30
2019-04-28T02:52:30.635Z,7.35
2019-04-28T02:56:34.506Z,7.36
2019-04-28T03:00:41.193Z,7.41
2019-04-28T03:04:46.344Z,7.46
2019-04-28T03:08:51.228Z,7.45
2019-04-28T03:12:56.109Z,7.44
2019-04-28T03:17:01.042Z,7.43
2019-04-28T03:21:05.961Z,7.44
2019-04-28T03:25:12.555Z,7.43
2019-04-28T03:29:21.788Z,7.46
2019-04-28T03:33:32.910Z,7.47
2019-04-28T03:37:34.909Z,7.44
2019-04-28T03:41:40.925Z,7.40
2019-04-28T03:45:53.404Z,7.33
2019-04-28T03:50:00.097Z,7.30
2019-04-28T03:54:04.865Z,7.30
2019-04-28T03:58:10.471Z,7.25
2019-04-28T04:02:15.522Z,7.20
2019-04-28T04:06:22.670Z,7.15
2019-04-28T04:10:32.186Z,7.15
2019-04-28T04:14:41.069Z,7.17
2019-04-28T04:18:46.924Z,7.19
2019-04-28T04:22:51.814Z,7.22
2019-04-28T04:26:56.696Z,7.33
2019-04-28T04:31:03.274Z,7.44
2019-04-28T04:35:10.393Z,7.51
2019-04-28T04:39:14.925Z,7.64
2019-04-28T04:43:23.043Z,7.73
2019-04-28T04:47:26.396Z,7.89
2019-04-28T04:51:31.284Z,8.04
2019-04-28T04:55:36.163Z,8.17
2019-04-28T04:59:41.050Z,8.36
2019-04-28T05:03:50.477Z,8.53
2019-04-28T05:07:55.368Z,8.70
2019-04-28T05:12:00.270Z,8.80
2019-04-28T05:16:05.138Z,8.87
2019-04-28T05:20:10.091Z,8.95
2019-04-28T05:24:34.731Z,9.02
2019-04-28T05:28:44.039Z,9.13
2019-04-28T05:32:55.404Z,9.41
2019-04-28T05:36:52.806Z,9.64
2019-04-28T05:40:57.680Z,9.85
2019-04-28T05:45:02.576Z,9.96
2019-04-28T05:49:10.285Z,10.04
2019-04-28T05:53:22.796Z,10.12
2019-04-28T05:57:30.563Z,10.24
2019-04-28T06:01:37.216Z,10.45
2019-04-28T06:05:42.102Z,10.61
2019-04-28T06:09:50.089Z,10.78
2019-04-28T06:13:55.028Z,10.82
2019-04-28T06:18:00.175Z,11.32
2019-04-28T06:22:05.088Z,11.89
2019-04-28T06:26:10.001Z,11.89
2019-04-28T06:30:15.113Z,11.86
2019-04-28T06:34:20.007Z,12.28
2019-04-28T06:38:24.902Z,12.99
2019-04-28T06:42:30.763Z,13.48
2019-04-28T06:46:36.628Z,13.25
2019-04-28T06:50:41.516Z,14.84
2019-04-28T06:54:46.411Z,15.34
2019-04-28T06:58:58.852Z,17.50
2019-04-28T07:02:57.888Z,21.04
2019-04-28T07:07:02.793Z,19.46
2019-04-28T07:11:07.688Z,17.01
2019-04-28T07:15:12.661Z,15.28
2019-04-28T07:19:17.554Z,14.07
2019-04-28T07:23:22.511Z,13.08
2019-04-28T07:27:27.406Z,12.49
2019-04-28T07:31:32.302Z,12.24
2019-04-28T07:35:37.203Z,12.70
2019-04-28T07:39:42.096Z,12.70
2019-04-28T07:43:46.988Z,12.27
2019-04-28T07:47:51.885Z,11.83
2019-04-28T07:52:01.165Z,11.58
2019-04-28T07:56:06.045Z,11.44
2019-04-28T08:00:13.718Z,11.59
2019-04-28T08:04:18.620Z,11.69
2019-04-28T08:08:23.519Z,11.83
2019-04-28T08:12:28.411Z,12.04
2019-04-28T08:16:33.314Z,12.25
2019-04-28T08:20:38.220Z,12.53
2019-04-28T08:24:43.119Z,12.72
2019-04-28T08:28:48.001Z,12.56
2019-04-28T08:32:59.992Z,12.49
2019-04-28T08:37:04.962Z,12.58
2019-04-28T08:41:09.862Z,12.78
2019-04-28T08:45:14.900Z,13.24
2019-04-28T08:49:19.796Z,13.52
2019-04-28T08:53:24.687Z,13.51
2019-04-28T08:57:29.589Z,13.29
2019-04-28T09:01:34.487Z,13.07
2019-04-28T09:05:39.384Z,13.16
2019-04-28T09:09:44.323Z,13.28
2019-04-28T09:13:49.168Z,13.43
2019-04-28T09:17:54.060Z,13.67
2019-04-28T09:21:59.802Z,13.50
2019-04-28T09:26:04.967Z,13.09
2019-04-28T09:30:10.000Z,13.06
2019-04-28T09:34:27.589Z,13.28
2019-04-28T09:38:22.469Z,13.45
2019-04-28T09:42:32.431Z,13.73
2019-04-28T09:46:38.969Z,14.13
2019-04-28T09:50:43.863Z,14.56
2019-04-28T09:54:48.777Z,14.79
2019-04-28T09:58:53.658Z,14.94
2019-04-28T10:02:58.557Z,14.97
2019-04-28T10:07:03.524Z,14.84
2019-04-28T10:11:08.482Z,14.54
2019-04-28T10:15:13.793Z,14.13
2019-04-28T10:19:18.689Z,13.87
2019-04-28T10:23:23.593Z,13.61
2019-04-28T10:27:28.486Z,13.55
2019-04-28T10:31:33.388Z,13.55
2019-04-28T10:35:38.272Z,13.53
2019-04-28T10:39:47.753Z,13.38
2019-04-28T10:43:52.648Z,13.24
2019-04-28T10:47:57.884Z,13.16
2019-04-28T10:52:02.788Z,13.10
2019-04-28T10:56:07.666Z,13.00
2019-04-28T11:00:13.187Z,12.88
2019-04-28T11:04:25.871Z,12.84
2019-04-28T11:08:32.469Z,13.16
2019-04-28T11:12:37.313Z,13.65
2019-04-28T11:16:42.271Z,13.73
2019-04-28T11:20:47.170Z,13.71
2019-04-28T11:24:52.078Z,13.63
2019-04-28T11:28:56.978Z,13.59
2019-04-28T11:33:03.512Z,13.71
2019-04-28T11:37:08.400Z,13.73
2019-04-28T11:41:13.365Z,13.49
2019-04-28T11:45:18.268Z,13.80
2019-04-28T11:49:23.240Z,13.61
2019-04-28T11:53:28.142Z,13.11
2019-04-28T11:57:33.027Z,12.52
2019-04-28T12:01:39.006Z,12.21
2019-04-28T12:05:45.561Z,12.16
2019-04-28T12:10:03.735Z,12.02
2019-04-28T12:14:12.595Z,11.85
2019-04-28T12:18:35.632Z,11.68
2019-04-28T12:22:40.534Z,11.66
2019-04-28T12:26:45.421Z,11.78
2019-04-28T12:30:50.388Z,11.90
2019-04-28T12:34:55.281Z,12.05
2019-04-28T12:39:00.243Z,12.31
2019-04-28T12:43:05.138Z,12.59
2019-04-28T12:47:10.034Z,12.88
2019-04-28T12:51:14.938Z,13.19
2019-04-28T12:55:19.832Z,13.50
2019-04-28T12:59:26.362Z,13.78
2019-04-28T13:03:44.589Z,14.05
2019-04-28T13:07:49.483Z,14.33
2019-04-28T13:11:54.375Z,14.62
2019-04-28T13:15:59.275Z,14.64
2019-04-28T13:20:05.309Z,14.58
2019-04-28T13:24:10.192Z,14.59
2019-04-28T13:28:15.088Z,14.64
2019-04-28T13:32:19.980Z,14.51
2019-04-28T13:36:24.882Z,14.58
2019-04-28T13:40:37.233Z,14.81
2019-04-28T13:44:49.947Z,14.79
2019-04-28T13:48:54.844Z,14.79
2019-04-28T13:52:59.744Z,14.74
2019-04-28T13:57:04.636Z,14.98
2019-04-28T14:01:11.175Z,15.35
2019-04-28T14:05:17.701Z,15.54
2019-04-28T14:09:22.603Z,15.61
2019-04-28T14:13:27.502Z,15.67
2019-04-28T14:17:32.394Z,15.51
2019-04-28T14:21:37.286Z,15.13
2019-04-28T14:25:42.178Z,14.24
2019-04-28T14:29:47.092Z,14.24
2019-04-28T14:33:51.981Z,14.05
2019-04-28T14:37:56.875Z,13.97
2019-04-28T14:42:01.772Z,13.89
2019-04-28T14:46:06.661Z,13.92
2019-04-28T14:50:12.736Z,14.12
2019-04-28T14:54:17.591Z,14.41
2019-04-28T14:58:22.471Z,14.59
2019-04-28T15:02:35.088Z,14.63
2019-04-28T15:06:55.352Z,14.49
2019-04-28T15:10:58.780Z,14.54
2019-04-28T15:15:05.653Z,14.72
2019-04-28T15:19:10.621Z,14.37
2019-04-28T15:23:15.511Z,14.43
2019-04-28T15:27:20.417Z,14.75
2019-04-28T15:31:25.314Z,15.03
2019-04-28T15:35:30.200Z,15.09
2019-04-28T15:39:35.100Z,14.99
2019-04-28T15:43:40.002Z,14.96
2019-04-28T15:47:44.898Z,15.16
2019-04-28T15:51:49.781Z,15.28
2019-04-28T15:55:59.458Z,15.23
2019-04-28T16:00:08.174Z,15.24
2019-04-28T16:04:13.071Z,15.24
2019-04-28T16:08:18.139Z,15.27
2019-04-28T16:12:23.031Z,15.33
2019-04-28T16:16:27.963Z,15.33
2019-04-28T16:20:32.820Z,15.31
2019-04-28T16:24:37.726Z,15.19
2019-04-28T16:28:42.618Z,15.09
2019-04-28T16:32:47.514Z,15.00
2019-04-28T16:36:52.404Z,14.69
2019-04-28T16:40:57.303Z,14.69
2019-04-28T16:45:02.206Z,14.23
2019-04-28T16:49:07.095Z,14.23
2019-04-28T16:53:11.991Z,14.29
2019-04-28T16:57:33.877Z,14.11
2019-04-28T17:01:55.672Z,14.11
2019-04-28T17:06:00.568Z,14.13
2019-04-28T17:10:06.813Z,14.02
2019-04-28T17:14:11.707Z,13.93
2019-04-28T17:18:16.610Z,13.85
2019-04-28T17:22:21.492Z,13.80
2019-04-28T17:26:26.554Z,13.73
2019-04-28T17:30:31.454Z,13.62
2019-04-28T17:34:36.343Z,13.56
2019-04-28T17:38:41.321Z,13.45
2019-04-28T17:42:46.230Z,13.18
2019-04-28T17:46:51.175Z,13.03
2019-04-28T17:50:56.087Z,13.00
2019-04-28T17:55:00.983Z,13.03
2019-04-28T17:59:07.141Z,12.97
2019-04-28T18:03:16.393Z,12.89
2019-04-28T18:07:31.790Z,12.80
2019-04-28T18:11:37.057Z,12.72
2019-04-28T18:15:58.876Z,12.66
2019-04-28T18:20:04.551Z,12.61
2019-04-28T18:24:11.031Z,12.48
2019-04-28T18:28:15.922Z,12.36
2019-04-28T18:32:31.321Z,12.23
2019-04-28T18:36:47.221Z,12.14
2019-04-28T18:40:53.828Z,12.04
2019-04-28T18:44:59.782Z,11.93
2019-04-28T18:49:04.677Z,11.79
2019-04-28T18:53:09.573Z,11.65
2019-04-28T18:57:14.603Z,11.53
2019-04-28T19:01:21.145Z,11.40
2019-04-28T19:05:27.682Z,11.19
2019-04-28T19:09:34.216Z,10.99
2019-04-28T19:13:40.755Z,10.83
2019-04-28T19:17:49.862Z,10.62
2019-04-28T19:21:55.930Z,10.60
2019-04-28T19:26:00.823Z,10.59
2019-04-28T19:30:06.549Z,10.51
2019-04-28T19:34:11.618Z,10.43
2019-04-28T19:38:16.520Z,10.12
2019-04-28T19:42:21.405Z,9.96
2019-04-28T19:46:26.295Z,9.70
2019-04-28T19:50:31.171Z,9.47
2019-04-28T19:54:37.698Z,9.34
2019-04-28T19:58:44.230Z,9.23
2019-04-28T20:02:49.116Z,9.05
2019-04-28T20:06:53.998Z,8.89
2019-04-28T20:10:58.887Z,8.88
2019-04-28T20:15:06.835Z,8.76
2019-04-28T20:19:11.726Z,8.60
2019-04-28T20:23:16.683Z,8.54
2019-04-28T20:27:21.570Z,8.49
2019-04-28T20:31:26.445Z,8.37
2019-04-28T20:35:35.927Z,8.24
2019-04-28T20:39:40.884Z,8.19
2019-04-28T20:43:45.768Z,8.16
2019-04-28T20:47:50.653Z,8.08
2019-04-28T20:51:56.613Z,7.75
2019-04-28T20:56:01.484Z,7.57
2019-04-28T21:00:08.087Z,7.51
2019-04-28T21:04:14.575Z,7.49
2019-04-28T21:08:19.466Z,7.49
2019-04-28T21:12:24.344Z,7.39
2019-04-28T21:16:29.222Z,7.04
2019-04-28T21:20:34.124Z,6.79
2019-04-28T21:24:39.005Z,6.82
2019-04-28T21:28:43.891Z,6.98
2019-04-28T21:32:48.778Z,7.03
2019-04-28T21:36:53.660Z,6.96
2019-04-28T21:40:58.545Z,6.89
2019-04-28T21:45:21.510Z,6.85
2019-04-28T21:49:28.034Z,6.48
2019-04-28T21:53:33.005Z,6.28
2019-04-28T21:57:37.875Z,6.13
2019-04-28T22:01:44.070Z,6.14
2019-04-28T22:05:48.960Z,5.93
2019-04-28T22:09:53.850Z,5.64
2019-04-28T22:13:58.733Z,5.58
2019-04-28T22:18:03.618Z,5.60
2019-04-28T22:22:08.560Z,5.59
2019-04-28T22:26:15.034Z,5.54
2019-04-28T22:30:19.991Z,5.32
2019-04-28T22:34:24.879Z,5.34
2019-04-28T22:38:29.752Z,5.51
2019-04-28T22:42:34.641Z,5.57
2019-04-28T22:46:39.537Z,5.34
2019-04-28T22:50:46.831Z,5.23
2019-04-28T22:54:53.364Z,5.30
2019-04-28T22:59:18.217Z,5.38
2019-04-28T23:03:24.802Z,5.45
2019-04-28T23:07:30.658Z,5.43
2019-04-28T23:11:36.055Z,5.33
2019-04-28T23:15:41.922Z,5.27
2019-04-28T23:19:46.874Z,5.23
2019-04-28T23:23:51.819Z,5.10
2019-04-28T23:27:56.701Z,5.01
2019-04-28T23:32:01.588Z,4.86
2019-04-28T23:36:06.474Z,4.67
2019-04-28T23:40:13.765Z,4.58
2019-04-28T23:44:18.651Z,4.72
2019-04-28T23:48:23.534Z,4.89
2019-04-28T23:52:33.115Z,4.70
2019-04-28T23:56:38.000Z,4.60
